sensor_id;sensor_type;location;lat;lon;timestamp;pressure;altitude;pressure_sealevel;temperature;humidity
13387;BME280;6763;48.524;9.044;2023-01-30T00:00:23;98458.72;;;3.17;52.52
13387;BME280;6763;48.524;9.044;2023-01-30T00:02:48;98443.56;;;3.26;52.78
13387;BME280;6763;48.524;9.044;2023-01-30T00:05:14;98435.25;;;3.36;52.81
13387;BME280;6763;48.524;9.044;2023-01-30T00:07:39;98442.25;;;3.45;52.34
13387;BME280;6763;48.524;9.044;2023-01-30T00:10:05;98450.88;;;3.50;52.18
13387;BME280;6763;48.524;9.044;2023-01-30T00:12:30;98447.44;;;3.49;51.78
13387;BME280;6763;48.524;9.044;2023-01-30T00:14:55;98432.09;;;3.49;52.02
13387;BME280;6763;48.524;9.044;2023-01-30T00:17:21;98431.16;;;3.44;52.18
13387;BME280;6763;48.524;9.044;2023-01-30T00:19:46;98437.09;;;3.43;52.14
13387;BME280;6763;48.524;9.044;2023-01-30T00:22:11;98433.63;;;3.40;51.79
13387;BME280;6763;48.524;9.044;2023-01-30T00:24:36;98425.00;;;3.36;51.99
13387;BME280;6763;48.524;9.044;2023-01-30T00:27:02;98416.47;;;3.36;51.69
13387;BME280;6763;48.524;9.044;2023-01-30T00:29:27;98402.81;;;3.35;52.19
13387;BME280;6763;48.524;9.044;2023-01-30T00:31:52;98401.06;;;3.33;51.84
13387;BME280;6763;48.524;9.044;2023-01-30T00:34:18;98402.72;;;3.31;52.08
13387;BME280;6763;48.524;9.044;2023-01-30T00:36:43;98405.22;;;3.28;51.82
13387;BME280;6763;48.524;9.044;2023-01-30T00:39:08;98405.16;;;3.25;52.13
13387;BME280;6763;48.524;9.044;2023-01-30T00:41:34;98390.66;;;3.24;52.22
13387;BME280;6763;48.524;9.044;2023-01-30T00:44:17;98399.13;;;3.21;52.14
13387;BME280;6763;48.524;9.044;2023-01-30T00:47:21;98394.81;;;3.19;52.00
13387;BME280;6763;48.524;9.044;2023-01-30T00:49:47;98385.41;;;3.18;52.46
13387;BME280;6763;48.524;9.044;2023-01-30T00:52:12;98387.09;;;3.17;52.03
13387;BME280;6763;48.524;9.044;2023-01-30T00:54:37;98384.53;;;3.16;52.02
13387;BME280;6763;48.524;9.044;2023-01-30T00:57:02;98380.22;;;3.14;52.31
13387;BME280;6763;48.524;9.044;2023-01-30T00:59:28;98381.91;;;3.12;51.82
13387;BME280;6763;48.524;9.044;2023-01-30T01:01:53;98385.25;;;3.10;52.01
13387;BME280;6763;48.524;9.044;2023-01-30T01:04:19;98390.38;;;3.11;52.43
13387;BME280;6763;48.524;9.044;2023-01-30T01:06:44;98388.75;;;3.13;52.27
13387;BME280;6763;48.524;9.044;2023-01-30T01:09:10;98398.19;;;3.16;52.05
13387;BME280;6763;48.524;9.044;2023-01-30T01:11:36;98401.56;;;3.17;51.99
13387;BME280;6763;48.524;9.044;2023-01-30T01:14:03;98396.53;;;3.20;52.08
13387;BME280;6763;48.524;9.044;2023-01-30T01:16:30;98403.31;;;3.19;51.96
13387;BME280;6763;48.524;9.044;2023-01-30T01:18:56;98402.50;;;3.19;51.96
13387;BME280;6763;48.524;9.044;2023-01-30T01:21:21;98417.03;;;3.21;52.04
13387;BME280;6763;48.524;9.044;2023-01-30T01:23:57;98429.84;;;3.23;51.38
13387;BME280;6763;48.524;9.044;2023-01-30T01:26:24;98424.72;;;3.21;51.82
13387;BME280;6763;48.524;9.044;2023-01-30T01:28:53;98437.59;;;3.26;52.05
13387;BME280;6763;48.524;9.044;2023-01-30T01:31:19;98451.34;;;3.32;51.61
13387;BME280;6763;48.524;9.044;2023-01-30T01:33:44;98452.28;;;3.37;51.27
13387;BME280;6763;48.524;9.044;2023-01-30T01:36:09;98460.91;;;3.41;51.49
13387;BME280;6763;48.524;9.044;2023-01-30T01:38:35;98461.78;;;3.43;51.17
13387;BME280;6763;48.524;9.044;2023-01-30T01:41:03;98467.84;;;3.46;51.20
13387;BME280;6763;48.524;9.044;2023-01-30T01:46:22;98466.06;;;3.42;50.70
13387;BME280;6763;48.524;9.044;2023-01-30T01:48:55;98468.59;;;3.41;50.72
13387;BME280;6763;48.524;9.044;2023-01-30T01:53:55;98459.09;;;3.35;50.56
13387;BME280;6763;48.524;9.044;2023-01-30T01:56:22;98459.88;;;3.31;50.90
13387;BME280;6763;48.524;9.044;2023-01-30T01:58:52;98463.22;;;3.29;50.84
13387;BME280;6763;48.524;9.044;2023-01-30T02:01:20;98459.72;;;3.24;50.83
13387;BME280;6763;48.524;9.044;2023-01-30T02:03:49;98461.38;;;3.22;51.48
13387;BME280;6763;48.524;9.044;2023-01-30T02:06:18;98449.44;;;3.22;51.53
13387;BME280;6763;48.524;9.044;2023-01-30T02:08:58;98440.13;;;3.24;50.81
13387;BME280;6763;48.524;9.044;2023-01-30T02:13:55;98453.72;;;3.22;51.39
13387;BME280;6763;48.524;9.044;2023-01-30T02:16:22;98457.03;;;3.19;51.21
13387;BME280;6763;48.524;9.044;2023-01-30T02:18:50;98458.78;;;3.20;51.20
13387;BME280;6763;48.524;9.044;2023-01-30T02:32:57;98447.56;;;3.13;51.41
13387;BME280;6763;48.524;9.044;2023-01-30T02:38:03;98478.22;;;3.12;52.06
13387;BME280;6763;48.524;9.044;2023-01-30T02:43:49;98465.56;;;3.20;51.44
13387;BME280;6763;48.524;9.044;2023-01-30T02:48:56;98433.28;;;3.25;51.33
13387;BME280;6763;48.524;9.044;2023-01-30T02:51:43;98440.97;;;3.25;50.90
13387;BME280;6763;48.524;9.044;2023-01-30T02:54:11;98441.81;;;3.24;50.77
13387;BME280;6763;48.524;9.044;2023-01-30T02:56:47;98461.41;;;3.25;50.90
13387;BME280;6763;48.524;9.044;2023-01-30T02:59:16;98452.78;;;3.20;50.60
13387;BME280;6763;48.524;9.044;2023-01-30T03:04:35;98446.78;;;3.16;50.97
13387;BME280;6763;48.524;9.044;2023-01-30T03:17:33;98453.97;;;2.95;50.80
13387;BME280;6763;48.524;9.044;2023-01-30T03:19:59;98436.88;;;2.92;51.01
13387;BME280;6763;48.524;9.044;2023-01-30T03:22:24;98428.28;;;2.89;50.83
13387;BME280;6763;48.524;9.044;2023-01-30T03:24:52;98423.94;;;2.86;51.05
13387;BME280;6763;48.524;9.044;2023-01-30T03:27:18;98411.09;;;2.82;50.81
13387;BME280;6763;48.524;9.044;2023-01-30T03:29:43;98422.09;;;2.79;51.37
13387;BME280;6763;48.524;9.044;2023-01-30T03:32:09;98426.28;;;2.76;51.24
13387;BME280;6763;48.524;9.044;2023-01-30T03:34:34;98420.34;;;2.77;51.27
13387;BME280;6763;48.524;9.044;2023-01-30T03:36:59;98422.03;;;2.76;51.32
13387;BME280;6763;48.524;9.044;2023-01-30T03:39:25;98413.47;;;2.74;51.10
13387;BME280;6763;48.524;9.044;2023-01-30T03:41:51;98399.81;;;2.72;51.09
13387;BME280;6763;48.524;9.044;2023-01-30T03:44:17;98378.50;;;2.72;51.53
13387;BME280;6763;48.524;9.044;2023-01-30T03:46:43;98330.00;;;2.75;51.49
13387;BME280;6763;48.524;9.044;2023-01-30T03:49:09;98284.91;;;2.78;51.94
13387;BME280;6763;48.524;9.044;2023-01-30T03:51:34;98277.59;;;2.96;51.74
13387;BME280;6763;48.524;9.044;2023-01-30T03:53:59;98298.44;;;3.16;51.67
13387;BME280;6763;48.524;9.044;2023-01-30T03:56:25;98326.81;;;3.30;50.76
13387;BME280;6763;48.524;9.044;2023-01-30T03:58:50;98337.41;;;3.49;50.26
13387;BME280;6763;48.524;9.044;2023-01-30T04:01:16;98355.53;;;3.61;49.93
13387;BME280;6763;48.524;9.044;2023-01-30T04:03:44;98367.66;;;3.71;49.44
13387;BME280;6763;48.524;9.044;2023-01-30T04:06:10;98374.59;;;3.77;49.21
13387;BME280;6763;48.524;9.044;2023-01-30T04:08:35;98357.53;;;3.79;48.93
13387;BME280;6763;48.524;9.044;2023-01-30T04:11:00;98363.47;;;3.75;48.73
13387;BME280;6763;48.524;9.044;2023-01-30T04:13:26;98373.63;;;3.72;49.18
13387;BME280;6763;48.524;9.044;2023-01-30T04:15:51;98359.91;;;3.68;49.30
13387;BME280;6763;48.524;9.044;2023-01-30T04:18:16;98364.16;;;3.66;49.29
13387;BME280;6763;48.524;9.044;2023-01-30T04:20:42;98362.44;;;3.65;49.34
13387;BME280;6763;48.524;9.044;2023-01-30T04:23:07;98379.50;;;3.66;49.45
13387;BME280;6763;48.524;9.044;2023-01-30T04:25:32;98377.88;;;3.70;49.52
13387;BME280;6763;48.524;9.044;2023-01-30T04:27:58;98379.63;;;3.72;49.28
13387;BME280;6763;48.524;9.044;2023-01-30T04:30:23;98377.84;;;3.68;49.33
13387;BME280;6763;48.524;9.044;2023-01-30T04:32:48;98382.88;;;3.64;49.27
13387;BME280;6763;48.524;9.044;2023-01-30T04:35:14;98390.47;;;3.59;49.76
13387;BME280;6763;48.524;9.044;2023-01-30T04:37:39;98391.25;;;3.55;49.72
13387;BME280;6763;48.524;9.044;2023-01-30T04:40:05;98395.47;;;3.53;49.93
13387;BME280;6763;48.524;9.044;2023-01-30T04:42:31;98372.44;;;3.53;49.53
13387;BME280;6763;48.524;9.044;2023-01-30T04:44:56;98375.88;;;3.55;49.91
13387;BME280;6763;48.524;9.044;2023-01-30T04:47:22;98387.94;;;3.59;49.87
13387;BME280;6763;48.524;9.044;2023-01-30T04:49:47;98374.34;;;3.63;49.92
13387;BME280;6763;48.524;9.044;2023-01-30T04:52:12;98370.09;;;3.64;49.81
13387;BME280;6763;48.524;9.044;2023-01-30T04:54:37;98382.19;;;3.72;50.00
13387;BME280;6763;48.524;9.044;2023-01-30T04:57:03;98381.44;;;3.80;49.56
13387;BME280;6763;48.524;9.044;2023-01-30T04:59:28;98369.53;;;3.82;49.77
13387;BME280;6763;48.524;9.044;2023-01-30T05:01:54;98384.06;;;3.83;49.42
13387;BME280;6763;48.524;9.044;2023-01-30T05:04:19;98379.84;;;3.85;49.66
13387;BME280;6763;48.524;9.044;2023-01-30T05:06:45;98380.69;;;3.85;49.10
13387;BME280;6763;48.524;9.044;2023-01-30T05:09:10;98393.56;;;3.90;49.38
13387;BME280;6763;48.524;9.044;2023-01-30T05:11:36;98398.88;;;3.99;49.34
13387;BME280;6763;48.524;9.044;2023-01-30T05:14:01;98395.56;;;4.06;48.87
13387;BME280;6763;48.524;9.044;2023-01-30T05:16:27;98400.84;;;4.15;48.45
13387;BME280;6763;48.524;9.044;2023-01-30T05:18:53;98396.72;;;4.24;48.70
13387;BME280;6763;48.524;9.044;2023-01-30T05:21:20;98385.78;;;4.33;48.46
13387;BME280;6763;48.524;9.044;2023-01-30T05:23:47;98380.75;;;4.41;48.19
13387;BME280;6763;48.524;9.044;2023-01-30T05:26:13;98374.81;;;4.43;48.07
13387;BME280;6763;48.524;9.044;2023-01-30T05:28:39;98375.75;;;4.48;48.17
13387;BME280;6763;48.524;9.044;2023-01-30T05:31:10;98366.38;;;4.52;47.84
13387;BME280;6763;48.524;9.044;2023-01-30T05:33:37;98362.16;;;4.55;48.05
13387;BME280;6763;48.524;9.044;2023-01-30T05:36:02;98357.09;;;4.58;47.87
13387;BME280;6763;48.524;9.044;2023-01-30T05:38:28;98358.00;;;4.63;47.64
13387;BME280;6763;48.524;9.044;2023-01-30T05:41:00;98351.19;;;4.64;47.44
13387;BME280;6763;48.524;9.044;2023-01-30T05:43:26;98344.41;;;4.69;47.36
13387;BME280;6763;48.524;9.044;2023-01-30T05:45:53;98341.91;;;4.73;47.07
13387;BME280;6763;48.524;9.044;2023-01-30T05:48:19;98340.25;;;4.78;46.87
13387;BME280;6763;48.524;9.044;2023-01-30T05:50:44;98335.19;;;4.81;46.56
13387;BME280;6763;48.524;9.044;2023-01-30T05:53:10;98342.09;;;4.87;46.21
13387;BME280;6763;48.524;9.044;2023-01-30T05:55:36;98338.75;;;4.92;46.29
13387;BME280;6763;48.524;9.044;2023-01-30T05:58:01;98338.78;;;4.97;46.20
13387;BME280;6763;48.524;9.044;2023-01-30T06:00:26;98332.84;;;5.01;46.02
13387;BME280;6763;48.524;9.044;2023-01-30T06:02:51;98305.53;;;5.03;46.00
13387;BME280;6763;48.524;9.044;2023-01-30T06:05:17;98317.53;;;5.06;45.70
13387;BME280;6763;48.524;9.044;2023-01-30T06:07:42;98326.09;;;5.09;45.55
13387;BME280;6763;48.524;9.044;2023-01-30T06:10:08;98322.72;;;5.12;45.45
13387;BME280;6763;48.524;9.044;2023-01-30T06:12:33;98327.00;;;5.14;45.32
13387;BME280;6763;48.524;9.044;2023-01-30T06:14:59;98314.25;;;5.19;45.05
13387;BME280;6763;48.524;9.044;2023-01-30T06:17:24;98316.00;;;5.24;44.91
13387;BME280;6763;48.524;9.044;2023-01-30T06:19:49;98315.22;;;5.28;44.85
13387;BME280;6763;48.524;9.044;2023-01-30T06:22:15;98325.47;;;5.28;44.42
13387;BME280;6763;48.524;9.044;2023-01-30T06:24:40;98326.34;;;5.30;44.09
13387;BME280;6763;48.524;9.044;2023-01-30T06:27:05;98321.22;;;5.30;44.40
13387;BME280;6763;48.524;9.044;2023-01-30T06:29:30;98320.41;;;5.34;44.18
13387;BME280;6763;48.524;9.044;2023-01-30T06:31:56;98295.59;;;5.33;43.89
13387;BME280;6763;48.524;9.044;2023-01-30T06:34:21;98297.28;;;5.31;43.82
13387;BME280;6763;48.524;9.044;2023-01-30T06:36:46;98300.69;;;5.30;43.95
13387;BME280;6763;48.524;9.044;2023-01-30T06:39:12;98302.41;;;5.31;43.53
13387;BME280;6763;48.524;9.044;2023-01-30T06:41:37;98298.19;;;5.36;43.10
13387;BME280;6763;48.524;9.044;2023-01-30T06:44:02;98301.63;;;5.37;43.25
13387;BME280;6763;48.524;9.044;2023-01-30T06:46:28;98317.03;;;5.38;42.85
13387;BME280;6763;48.524;9.044;2023-01-30T06:48:53;98313.63;;;5.41;42.94
13387;BME280;6763;48.524;9.044;2023-01-30T06:51:18;98312.78;;;5.45;42.67
13387;BME280;6763;48.524;9.044;2023-01-30T06:53:44;98314.53;;;5.47;42.54
13387;BME280;6763;48.524;9.044;2023-01-30T06:56:09;98311.13;;;5.48;42.66
13387;BME280;6763;48.524;9.044;2023-01-30T06:58:34;98305.13;;;5.48;42.76
13387;BME280;6763;48.524;9.044;2023-01-30T07:01:00;98301.69;;;5.47;42.79
13387;BME280;6763;48.524;9.044;2023-01-30T07:03:26;98305.13;;;5.48;42.52
13387;BME280;6763;48.524;9.044;2023-01-30T07:05:51;98300.78;;;5.42;42.56
13387;BME280;6763;48.524;9.044;2023-01-30T07:08:17;98294.81;;;5.42;42.55
13387;BME280;6763;48.524;9.044;2023-01-30T07:10:43;98290.53;;;5.39;42.39
13387;BME280;6763;48.524;9.044;2023-01-30T07:13:08;98276.78;;;5.37;42.46
13387;BME280;6763;48.524;9.044;2023-01-30T07:15:33;98273.34;;;5.34;42.69
13387;BME280;6763;48.524;9.044;2023-01-30T07:17:59;98293.00;;;5.32;42.59
13387;BME280;6763;48.524;9.044;2023-01-30T07:20:25;98284.47;;;5.33;42.55
13387;BME280;6763;48.524;9.044;2023-01-30T07:22:51;98292.16;;;5.31;42.50
13387;BME280;6763;48.524;9.044;2023-01-30T07:25:17;98300.69;;;5.32;42.35
13387;BME280;6763;48.524;9.044;2023-01-30T07:27:49;98305.84;;;5.33;42.28
13387;BME280;6763;48.524;9.044;2023-01-30T07:30:14;98314.47;;;5.38;42.09
13387;BME280;6763;48.524;9.044;2023-01-30T07:32:40;98314.53;;;5.44;42.48
13387;BME280;6763;48.524;9.044;2023-01-30T07:35:05;98308.59;;;5.51;42.03
13387;BME280;6763;48.524;9.044;2023-01-30T07:37:31;98314.63;;;5.56;41.57
13387;BME280;6763;48.524;9.044;2023-01-30T07:39:56;98318.09;;;5.61;41.51
13387;BME280;6763;48.524;9.044;2023-01-30T07:42:22;98319.00;;;5.68;41.57
13387;BME280;6763;48.524;9.044;2023-01-30T07:44:47;98323.34;;;5.74;41.92
13387;BME280;6763;48.524;9.044;2023-01-30T07:47:12;98328.53;;;5.81;41.75
13387;BME280;6763;48.524;9.044;2023-01-30T07:49:39;98311.53;;;5.88;41.45
13387;BME280;6763;48.524;9.044;2023-01-30T07:52:04;98313.25;;;5.92;41.30
13387;BME280;6763;48.524;9.044;2023-01-30T07:54:29;98321.03;;;5.96;40.88
13387;BME280;6763;48.524;9.044;2023-01-30T07:56:55;98326.16;;;5.98;41.19
13387;BME280;6763;48.524;9.044;2023-01-30T07:59:20;98318.47;;;6.01;40.73
13387;BME280;6763;48.524;9.044;2023-01-30T08:01:45;98319.34;;;6.01;41.00
13387;BME280;6763;48.524;9.044;2023-01-30T08:04:11;98322.81;;;6.06;41.14
13387;BME280;6763;48.524;9.044;2023-01-30T08:06:36;98314.28;;;6.12;41.27
13387;BME280;6763;48.524;9.044;2023-01-30T08:09:03;98316.03;;;6.20;40.94
13387;BME280;6763;48.524;9.044;2023-01-30T08:11:29;98306.69;;;6.29;40.71
13387;BME280;6763;48.524;9.044;2023-01-30T08:13:54;98305.88;;;6.34;40.95
13387;BME280;6763;48.524;9.044;2023-01-30T08:16:20;98288.75;;;6.35;40.70
13387;BME280;6763;48.524;9.044;2023-01-30T08:18:45;98286.19;;;6.38;40.41
13387;BME280;6763;48.524;9.044;2023-01-30T08:21:11;98298.13;;;6.30;40.58
13387;BME280;6763;48.524;9.044;2023-01-30T08:23:36;98301.56;;;6.32;40.73
13387;BME280;6763;48.524;9.044;2023-01-30T08:26:03;98318.72;;;6.34;40.30
13387;BME280;6763;48.524;9.044;2023-01-30T08:28:29;98341.03;;;6.41;40.37
13387;BME280;6763;48.524;9.044;2023-01-30T08:30:55;98328.22;;;6.47;40.60
13387;BME280;6763;48.524;9.044;2023-01-30T08:33:21;98331.66;;;6.49;40.39
13387;BME280;6763;48.524;9.044;2023-01-30T08:35:47;98334.25;;;6.49;40.77
13387;BME280;6763;48.524;9.044;2023-01-30T08:38:13;98323.13;;;6.56;40.78
13387;BME280;6763;48.524;9.044;2023-01-30T08:40:39;98319.72;;;6.62;40.08
13387;BME280;6763;48.524;9.044;2023-01-30T08:43:04;98309.53;;;6.74;40.45
13387;BME280;6763;48.524;9.044;2023-01-30T08:45:30;98301.00;;;6.88;40.23
13387;BME280;6763;48.524;9.044;2023-01-30T08:48:04;98301.06;;;7.07;39.77
13387;BME280;6763;48.524;9.044;2023-01-30T08:50:30;98306.28;;;7.25;39.41
13387;BME280;6763;48.524;9.044;2023-01-30T08:52:55;98310.59;;;7.42;39.37
13387;BME280;6763;48.524;9.044;2023-01-30T08:55:21;98315.81;;;7.55;39.29
13387;BME280;6763;48.524;9.044;2023-01-30T08:57:47;98312.34;;;7.56;39.10
13387;BME280;6763;48.524;9.044;2023-01-30T09:00:13;98318.38;;;7.59;39.16
13387;BME280;6763;48.524;9.044;2023-01-30T09:02:39;98309.78;;;7.59;39.01
13387;BME280;6763;48.524;9.044;2023-01-30T09:05:05;98295.19;;;7.64;38.97
13387;BME280;6763;48.524;9.044;2023-01-30T09:07:31;98313.25;;;7.62;39.30
13387;BME280;6763;48.524;9.044;2023-01-30T09:09:56;98304.66;;;7.62;39.53
13387;BME280;6763;48.524;9.044;2023-01-30T09:12:22;98296.06;;;7.67;39.33
13387;BME280;6763;48.524;9.044;2023-01-30T09:14:48;98297.78;;;7.73;38.95
13387;BME280;6763;48.524;9.044;2023-01-30T09:17:13;98270.31;;;7.67;39.24
13387;BME280;6763;48.524;9.044;2023-01-30T09:19:38;98267.69;;;7.63;39.87
13387;BME280;6763;48.524;9.044;2023-01-30T09:22:04;98260.84;;;7.43;39.78
13387;BME280;6763;48.524;9.044;2023-01-30T09:24:31;98265.09;;;7.25;40.61
13387;BME280;6763;48.524;9.044;2023-01-30T09:26:57;98265.97;;;7.28;40.76
13387;BME280;6763;48.524;9.044;2023-01-30T09:29:24;98257.38;;;7.25;40.91
13387;BME280;6763;48.524;9.044;2023-01-30T09:31:50;98253.91;;;7.09;41.40
13387;BME280;6763;48.524;9.044;2023-01-30T09:34:15;98280.47;;;7.08;41.57
13387;BME280;6763;48.524;9.044;2023-01-30T09:36:40;98284.78;;;7.14;41.72
13387;BME280;6763;48.524;9.044;2023-01-30T09:39:06;98288.22;;;7.11;41.99
13387;BME280;6763;48.524;9.044;2023-01-30T09:41:47;98268.50;;;7.18;42.03
13387;BME280;6763;48.524;9.044;2023-01-30T09:47:06;98277.16;;;7.58;42.02
13387;BME280;6763;48.524;9.044;2023-01-30T09:52:26;98259.97;;;8.09;41.19
13387;BME280;6763;48.524;9.044;2023-01-30T09:55:01;98262.50;;;8.41;40.42
13387;BME280;6763;48.524;9.044;2023-01-30T09:57:38;98258.19;;;8.54;40.17
13387;BME280;6763;48.524;9.044;2023-01-30T10:00:21;98247.81;;;8.73;40.12
13387;BME280;6763;48.524;9.044;2023-01-30T10:02:54;98240.88;;;8.83;39.81
13387;BME280;6763;48.524;9.044;2023-01-30T10:05:30;98229.66;;;8.89;40.11
13387;BME280;6763;48.524;9.044;2023-01-30T10:08:16;98229.59;;;8.98;39.82
13387;BME280;6763;48.524;9.044;2023-01-30T10:13:58;98220.09;;;9.07;39.71
13387;BME280;6763;48.524;9.044;2023-01-30T10:22:30;98180.53;;;9.04;40.53
13387;BME280;6763;48.524;9.044;2023-01-30T10:27:56;98187.06;;;9.50;40.37
13387;BME280;6763;48.524;9.044;2023-01-30T10:30:23;98188.59;;;9.74;39.87
13387;BME280;6763;48.524;9.044;2023-01-30T10:32:55;98186.63;;;10.00;39.72
13387;BME280;6763;48.524;9.044;2023-01-30T10:35:29;98184.41;;;10.47;38.71
13387;BME280;6763;48.524;9.044;2023-01-30T10:40:52;98190.56;;;10.36;38.12
13387;BME280;6763;48.524;9.044;2023-01-30T10:43:30;98173.41;;;10.27;38.51
13387;BME280;6763;48.524;9.044;2023-01-30T10:48:49;98171.88;;;10.11;39.41
13387;BME280;6763;48.524;9.044;2023-01-30T10:51:43;98158.81;;;10.23;39.07
13387;BME280;6763;48.524;9.044;2023-01-30T10:59:57;98165.38;;;10.51;39.62
13387;BME280;6763;48.524;9.044;2023-01-30T11:02:40;98154.09;;;10.57;39.55
13387;BME280;6763;48.524;9.044;2023-01-30T11:05:23;98160.25;;;10.47;39.81
13387;BME280;6763;48.524;9.044;2023-01-30T11:07:49;98151.59;;;10.48;40.29
13387;BME280;6763;48.524;9.044;2023-01-30T11:10:20;98144.91;;;10.35;40.87
13387;BME280;6763;48.524;9.044;2023-01-30T11:12:51;98159.69;;;10.24;40.83
13387;BME280;6763;48.524;9.044;2023-01-30T11:15:17;98169.94;;;10.31;40.71
13387;BME280;6763;48.524;9.044;2023-01-30T11:17:43;98151.75;;;10.39;41.28
13387;BME280;6763;48.524;9.044;2023-01-30T11:20:17;98162.72;;;10.56;40.64
13387;BME280;6763;48.524;9.044;2023-01-30T11:22:49;98167.97;;;10.51;40.77
13387;BME280;6763;48.524;9.044;2023-01-30T11:25:18;98157.84;;;10.35;40.84
13387;BME280;6763;48.524;9.044;2023-01-30T11:28:11;98152.63;;;10.36;41.11
13387;BME280;6763;48.524;9.044;2023-01-30T11:30:37;98163.06;;;10.29;41.43
13387;BME280;6763;48.524;9.044;2023-01-30T11:33:13;98157.91;;;10.29;41.39
13387;BME280;6763;48.524;9.044;2023-01-30T11:35:55;98144.03;;;10.34;40.80
13387;BME280;6763;48.524;9.044;2023-01-30T11:38:35;98142.31;;;10.35;41.48
13387;BME280;6763;48.524;9.044;2023-01-30T11:43:33;98143.97;;;10.39;41.39
13387;BME280;6763;48.524;9.044;2023-01-30T11:45:59;98144.88;;;10.36;41.23
13387;BME280;6763;48.524;9.044;2023-01-30T11:48:28;98141.41;;;10.36;41.15
13387;BME280;6763;48.524;9.044;2023-01-30T11:50:59;98141.47;;;10.31;41.25
13387;BME280;6763;48.524;9.044;2023-01-30T11:53:38;98139.03;;;10.18;41.62
13387;BME280;6763;48.524;9.044;2023-01-30T11:56:11;98145.84;;;10.25;41.54
13387;BME280;6763;48.524;9.044;2023-01-30T11:58:39;98136.50;;;10.12;42.20
13387;BME280;6763;48.524;9.044;2023-01-30T12:01:08;98144.28;;;10.10;42.23
13387;BME280;6763;48.524;9.044;2023-01-30T12:03:42;98151.19;;;10.08;42.08
13387;BME280;6763;48.524;9.044;2023-01-30T12:06:08;98149.47;;;10.07;42.37
13387;BME280;6763;48.524;9.044;2023-01-30T12:08:39;98126.28;;;10.01;42.23
13387;BME280;6763;48.524;9.044;2023-01-30T12:11:23;98149.69;;;9.90;42.49
13387;BME280;6763;48.524;9.044;2023-01-30T12:13:49;98143.69;;;9.85;42.29
13387;BME280;6763;48.524;9.044;2023-01-30T12:16:22;98147.22;;;9.77;42.87
13387;BME280;6763;48.524;9.044;2023-01-30T12:19:02;98150.75;;;9.70;42.71
13387;BME280;6763;48.524;9.044;2023-01-30T12:24:19;98151.63;;;9.63;42.87
13387;BME280;6763;48.524;9.044;2023-01-30T12:26:54;98141.31;;;9.60;42.91
13387;BME280;6763;48.524;9.044;2023-01-30T12:32:27;98116.44;;;9.51;43.04
13387;BME280;6763;48.524;9.044;2023-01-30T12:34:54;98117.38;;;9.46;43.68
13387;BME280;6763;48.524;9.044;2023-01-30T12:37:30;98119.84;;;9.56;42.94
13387;BME280;6763;48.524;9.044;2023-01-30T12:51:04;98112.91;;;9.60;42.96
13387;BME280;6763;48.524;9.044;2023-01-30T12:53:55;98121.56;;;9.56;43.26
13387;BME280;6763;48.524;9.044;2023-01-30T12:56:54;98119.91;;;9.52;43.70
13387;BME280;6763;48.524;9.044;2023-01-30T12:59:42;98109.56;;;9.50;43.99
13387;BME280;6763;48.524;9.044;2023-01-30T13:02:51;98120.66;;;9.61;43.12
13387;BME280;6763;48.524;9.044;2023-01-30T13:05:43;98124.13;;;9.57;43.40
13387;BME280;6763;48.524;9.044;2023-01-30T13:12:02;98148.28;;;9.53;43.54
13387;BME280;6763;48.524;9.044;2023-01-30T13:14:16;98156.03;;;9.53;44.09
13387;BME280;6763;48.524;9.044;2023-01-30T13:16:47;98155.19;;;9.53;43.64
13387;BME280;6763;48.524;9.044;2023-01-30T13:19:26;98162.06;;;9.52;43.74
13387;BME280;6763;48.524;9.044;2023-01-30T13:24:33;98161.34;;;9.38;43.76
13387;BME280;6763;48.524;9.044;2023-01-30T13:27:10;98147.63;;;9.30;44.00
13387;BME280;6763;48.524;9.044;2023-01-30T13:29:39;98158.91;;;9.18;44.80
13387;BME280;6763;48.524;9.044;2023-01-30T13:32:13;98176.88;;;9.33;44.04
13387;BME280;6763;48.524;9.044;2023-01-30T13:34:43;98148.38;;;9.43;44.33
13387;BME280;6763;48.524;9.044;2023-01-30T13:37:16;98162.19;;;9.40;43.82
13387;BME280;6763;48.524;9.044;2023-01-30T13:39:53;98151.72;;;9.52;44.00
13387;BME280;6763;48.524;9.044;2023-01-30T13:42:39;98157.84;;;9.42;43.66
13387;BME280;6763;48.524;9.044;2023-01-30T13:45:10;98171.69;;;9.35;44.05
13387;BME280;6763;48.524;9.044;2023-01-30T13:47:51;98160.50;;;9.36;43.92
13387;BME280;6763;48.524;9.044;2023-01-30T13:50:32;98164.75;;;9.40;43.87
13387;BME280;6763;48.524;9.044;2023-01-30T13:53:05;98163.06;;;9.38;44.73
13387;BME280;6763;48.524;9.044;2023-01-30T14:01:13;98179.56;;;9.18;45.39
13387;BME280;6763;48.524;9.044;2023-01-30T14:03:40;98176.00;;;9.34;44.98
13387;BME280;6763;48.524;9.044;2023-01-30T14:06:10;98178.59;;;9.33;44.73
13387;BME280;6763;48.524;9.044;2023-01-30T14:08:48;98191.59;;;9.22;45.32
13387;BME280;6763;48.524;9.044;2023-01-30T14:11:41;98188.06;;;9.32;45.33
13387;BME280;6763;48.524;9.044;2023-01-30T14:14:30;98200.22;;;9.20;45.19
13387;BME280;6763;48.524;9.044;2023-01-30T14:17:07;98189.03;;;9.19;45.07
13387;BME280;6763;48.524;9.044;2023-01-30T14:19:37;98195.91;;;9.20;45.26
13387;BME280;6763;48.524;9.044;2023-01-30T14:24:43;98212.31;;;9.12;45.20
13387;BME280;6763;48.524;9.044;2023-01-30T14:27:25;98212.34;;;9.10;45.47
13387;BME280;6763;48.524;9.044;2023-01-30T14:29:56;98214.94;;;9.04;46.19
13387;BME280;6763;48.524;9.044;2023-01-30T14:40:03;98224.41;;;9.07;46.38
13387;BME280;6763;48.524;9.044;2023-01-30T14:45:52;98236.53;;;8.88;46.63
13387;BME280;6763;48.524;9.044;2023-01-30T14:53:53;98253.88;;;8.63;47.54
13387;BME280;6763;48.524;9.044;2023-01-30T14:59:02;98265.03;;;8.68;47.99
13387;BME280;6763;48.524;9.044;2023-01-30T15:04:20;98277.06;;;8.62;48.21
13387;BME280;6763;48.524;9.044;2023-01-30T15:06:52;98282.25;;;8.57;48.18
13387;BME280;6763;48.524;9.044;2023-01-30T15:09:21;98291.72;;;8.60;47.89
13387;BME280;6763;48.524;9.044;2023-01-30T15:12:02;98298.59;;;8.61;48.15
13387;BME280;6763;48.524;9.044;2023-01-30T15:15:12;98306.34;;;8.61;48.51
13387;BME280;6763;48.524;9.044;2023-01-30T15:23:16;98318.38;;;8.51;48.54
13387;BME280;6763;48.524;9.044;2023-01-30T15:26:08;98321.84;;;8.47;48.67
13387;BME280;6763;48.524;9.044;2023-01-30T15:31:20;98318.41;;;8.33;49.26
13387;BME280;6763;48.524;9.044;2023-01-30T15:33:48;98322.72;;;8.31;49.51
13387;BME280;6763;48.524;9.044;2023-01-30T15:41:26;98318.41;;;8.18;49.94
13387;BME280;6763;48.524;9.044;2023-01-30T15:44:09;98317.53;;;8.16;50.43
13387;BME280;6763;48.524;9.044;2023-01-30T15:46:54;98306.38;;;8.12;49.90
13387;BME280;6763;48.524;9.044;2023-01-30T15:52:12;98325.28;;;8.16;50.03